sensor_id;sensor_type;location;lat;lon;timestamp;P1;P2;P0
49914;PMS5003;35806;47.958;13.158;2023-03-01T00:00:50;61;50;
49914;PMS5003;35806;47.958;13.158;2023-03-01T00:03:18;55;49;
49914;PMS5003;35806;47.958;13.158;2023-03-01T00:05:46;57;49;
49914;PMS5003;35806;47.958;13.158;2023-03-01T00:08:14;52;46;
49914;PMS5003;35806;47.958;13.158;2023-03-01T00:10:41;53;47;
49914;PMS5003;35806;47.958;13.158;2023-03-01T00:13:09;55;52;
49914;PMS5003;35806;47.958;13.158;2023-03-01T00:15:42;56;52;
49914;PMS5003;35806;47.958;13.158;2023-03-01T00:18:19;53;45;
49914;PMS5003;35806;47.958;13.158;2023-03-01T00:20:49;52;50;
49914;PMS5003;35806;47.958;13.158;2023-03-01T00:23:16;50;43;
49914;PMS5003;35806;47.958;13.158;2023-03-01T00:25:44;57;53;
49914;PMS5003;35806;47.958;13.158;2023-03-01T00:28:11;60;50;
49914;PMS5003;35806;47.958;13.158;2023-03-01T00:30:38;58;52;
49914;PMS5003;35806;47.958;13.158;2023-03-01T00:33:05;57;51;
49914;PMS5003;35806;47.958;13.158;2023-03-01T00:35:33;54;45;
49914;PMS5003;35806;47.958;13.158;2023-03-01T00:38:00;55;47;
49914;PMS5003;35806;47.958;13.158;2023-03-01T00:40:28;53;50;
49914;PMS5003;35806;47.958;13.158;2023-03-01T00:42:57;57;53;
49914;PMS5003;35806;47.958;13.158;2023-03-01T00:45:24;52;47;
49914;PMS5003;35806;47.958;13.158;2023-03-01T00:47:52;64;52;
49914;PMS5003;35806;47.958;13.158;2023-03-01T00:50:19;60;49;
49914;PMS5003;35806;47.958;13.158;2023-03-01T00:52:47;57;51;
49914;PMS5003;35806;47.958;13.158;2023-03-01T00:55:19;56;49;
49914;PMS5003;35806;47.958;13.158;2023-03-01T00:57:47;59;50;
49914;PMS5003;35806;47.958;13.158;2023-03-01T01:00:14;59;55;
49914;PMS5003;35806;47.958;13.158;2023-03-01T01:02:43;69;52;
49914;PMS5003;35806;47.958;13.158;2023-03-01T01:05:10;59;50;
49914;PMS5003;35806;47.958;13.158;2023-03-01T01:07:37;59;56;
49914;PMS5003;35806;47.958;13.158;2023-03-01T01:10:05;60;51;
49914;PMS5003;35806;47.958;13.158;2023-03-01T01:12:34;64;50;
49914;PMS5003;35806;47.958;13.158;2023-03-01T01:15:01;53;45;
49914;PMS5003;35806;47.958;13.158;2023-03-01T01:17:28;59;51;
49914;PMS5003;35806;47.958;13.158;2023-03-01T01:19:55;54;49;
49914;PMS5003;35806;47.958;13.158;2023-03-01T01:22:22;55;48;
49914;PMS5003;35806;47.958;13.158;2023-03-01T01:24:49;65;52;
49914;PMS5003;35806;47.958;13.158;2023-03-01T01:27:17;66;50;
49914;PMS5003;35806;47.958;13.158;2023-03-01T01:29:44;58;49;
49914;PMS5003;35806;47.958;13.158;2023-03-01T01:32:11;60;50;
49914;PMS5003;35806;47.958;13.158;2023-03-01T01:34:39;64;54;
49914;PMS5003;35806;47.958;13.158;2023-03-01T01:37:06;63;54;
49914;PMS5003;35806;47.958;13.158;2023-03-01T01:39:33;65;52;
49914;PMS5003;35806;47.958;13.158;2023-03-01T01:42:01;69;52;
49914;PMS5003;35806;47.958;13.158;2023-03-01T01:44:28;62;54;
49914;PMS5003;35806;47.958;13.158;2023-03-01T01:46:56;54;47;
49914;PMS5003;35806;47.958;13.158;2023-03-01T01:49:28;65;53;
49914;PMS5003;35806;47.958;13.158;2023-03-01T01:52:01;61;51;
49914;PMS5003;35806;47.958;13.158;2023-03-01T01:54:37;54;51;
49914;PMS5003;35806;47.958;13.158;2023-03-01T01:57:11;65;50;
49914;PMS5003;35806;47.958;13.158;2023-03-01T01:59:42;61;56;
49914;PMS5003;35806;47.958;13.158;2023-03-01T02:15:31;54;50;
49914;PMS5003;35806;47.958;13.158;2023-03-01T02:18:01;52;46;
49914;PMS5003;35806;47.958;13.158;2023-03-01T02:20:33;56;45;
49914;PMS5003;35806;47.958;13.158;2023-03-01T02:23:04;62;52;
49914;PMS5003;35806;47.958;13.158;2023-03-01T02:25:34;67;57;
49914;PMS5003;35806;47.958;13.158;2023-03-01T02:28:08;50;50;
49914;PMS5003;35806;47.958;13.158;2023-03-01T02:30:45;53;46;
49914;PMS5003;35806;47.958;13.158;2023-03-01T02:33:16;59;49;
49914;PMS5003;35806;47.958;13.158;2023-03-01T02:35:44;68;51;
49914;PMS5003;35806;47.958;13.158;2023-03-01T02:38:11;66;55;
49914;PMS5003;35806;47.958;13.158;2023-03-01T02:40:38;52;47;
49914;PMS5003;35806;47.958;13.158;2023-03-01T02:43:07;61;48;
49914;PMS5003;35806;47.958;13.158;2023-03-01T02:45:36;61;49;
49914;PMS5003;35806;47.958;13.158;2023-03-01T02:48:04;58;50;
49914;PMS5003;35806;47.958;13.158;2023-03-01T02:50:44;55;51;
49914;PMS5003;35806;47.958;13.158;2023-03-01T02:53:23;56;47;
49914;PMS5003;35806;47.958;13.158;2023-03-01T02:55:59;54;50;
49914;PMS5003;35806;47.958;13.158;2023-03-01T02:58:27;55;50;
49914;PMS5003;35806;47.958;13.158;2023-03-01T03:00:54;45;43;
49914;PMS5003;35806;47.958;13.158;2023-03-01T03:03:22;51;47;
49914;PMS5003;35806;47.958;13.158;2023-03-01T03:05:50;56;50;
49914;PMS5003;35806;47.958;13.158;2023-03-01T03:08:17;56;50;
49914;PMS5003;35806;47.958;13.158;2023-03-01T03:10:44;62;52;
49914;PMS5003;35806;47.958;13.158;2023-03-01T03:13:12;56;54;
49914;PMS5003;35806;47.958;13.158;2023-03-01T03:15:40;53;45;
49914;PMS5003;35806;47.958;13.158;2023-03-01T03:18:09;73;60;
49914;PMS5003;35806;47.958;13.158;2023-03-01T03:20:39;62;52;
49914;PMS5003;35806;47.958;13.158;2023-03-01T03:23:08;60;53;
49914;PMS5003;35806;47.958;13.158;2023-03-01T03:25:35;57;53;
49914;PMS5003;35806;47.958;13.158;2023-03-01T03:28:03;66;56;
49914;PMS5003;35806;47.958;13.158;2023-03-01T03:30:31;67;54;
49914;PMS5003;35806;47.958;13.158;2023-03-01T03:32:59;73;58;
49914;PMS5003;35806;47.958;13.158;2023-03-01T03:35:31;59;49;
49914;PMS5003;35806;47.958;13.158;2023-03-01T03:38:01;73;61;
49914;PMS5003;35806;47.958;13.158;2023-03-01T03:40:33;58;48;
49914;PMS5003;35806;47.958;13.158;2023-03-01T03:43:02;64;49;
49914;PMS5003;35806;47.958;13.158;2023-03-01T03:45:29;63;54;
49914;PMS5003;35806;47.958;13.158;2023-03-01T03:47:56;57;53;
49914;PMS5003;35806;47.958;13.158;2023-03-01T03:50:23;56;47;
49914;PMS5003;35806;47.958;13.158;2023-03-01T03:52:50;60;53;
49914;PMS5003;35806;47.958;13.158;2023-03-01T03:55:18;55;49;
49914;PMS5003;35806;47.958;13.158;2023-03-01T03:57:50;72;61;
49914;PMS5003;35806;47.958;13.158;2023-03-01T04:00:19;74;60;
49914;PMS5003;35806;47.958;13.158;2023-03-01T04:02:48;73;59;
49914;PMS5003;35806;47.958;13.158;2023-03-01T04:05:21;54;49;
49914;PMS5003;35806;47.958;13.158;2023-03-01T04:07:49;54;52;
49914;PMS5003;35806;47.958;13.158;2023-03-01T04:10:21;65;55;
49914;PMS5003;35806;47.958;13.158;2023-03-01T04:12:48;65;55;
49914;PMS5003;35806;47.958;13.158;2023-03-01T04:15:15;61;49;
49914;PMS5003;35806;47.958;13.158;2023-03-01T04:17:44;56;50;
49914;PMS5003;35806;47.958;13.158;2023-03-01T04:20:14;62;54;
49914;PMS5003;35806;47.958;13.158;2023-03-01T04:22:43;63;54;
49914;PMS5003;35806;47.958;13.158;2023-03-01T04:25:10;56;53;
49914;PMS5003;35806;47.958;13.158;2023-03-01T04:27:38;64;53;
49914;PMS5003;35806;47.958;13.158;2023-03-01T04:30:06;67;53;
49914;PMS5003;35806;47.958;13.158;2023-03-01T04:32:35;67;55;
49914;PMS5003;35806;47.958;13.158;2023-03-01T04:35:03;64;56;
49914;PMS5003;35806;47.958;13.158;2023-03-01T04:37:31;65;58;
49914;PMS5003;35806;47.958;13.158;2023-03-01T04:39:58;70;58;
49914;PMS5003;35806;47.958;13.158;2023-03-01T04:42:26;71;62;
49914;PMS5003;35806;47.958;13.158;2023-03-01T04:44:54;73;60;
49914;PMS5003;35806;47.958;13.158;2023-03-01T04:47:21;63;56;
49914;PMS5003;35806;47.958;13.158;2023-03-01T04:49:48;64;55;
49914;PMS5003;35806;47.958;13.158;2023-03-01T04:52:15;63;54;
49914;PMS5003;35806;47.958;13.158;2023-03-01T04:54:42;73;57;
49914;PMS5003;35806;47.958;13.158;2023-03-01T04:57:10;65;56;
49914;PMS5003;35806;47.958;13.158;2023-03-01T04:59:37;73;62;
49914;PMS5003;35806;47.958;13.158;2023-03-01T05:02:05;69;52;
49914;PMS5003;35806;47.958;13.158;2023-03-01T05:04:31;82;68;
49914;PMS5003;35806;47.958;13.158;2023-03-01T05:06:59;81;63;
49914;PMS5003;35806;47.958;13.158;2023-03-01T05:09:27;69;61;
49914;PMS5003;35806;47.958;13.158;2023-03-01T05:11:55;71;62;
49914;PMS5003;35806;47.958;13.158;2023-03-01T05:14:22;67;60;
49914;PMS5003;35806;47.958;13.158;2023-03-01T05:16:49;79;64;
49914;PMS5003;35806;47.958;13.158;2023-03-01T05:19:16;80;66;
49914;PMS5003;35806;47.958;13.158;2023-03-01T05:21:43;76;67;
49914;PMS5003;35806;47.958;13.158;2023-03-01T05:24:10;85;67;
49914;PMS5003;35806;47.958;13.158;2023-03-01T05:26:37;76;68;
49914;PMS5003;35806;47.958;13.158;2023-03-01T05:29:05;68;62;
49914;PMS5003;35806;47.958;13.158;2023-03-01T05:31:32;86;67;
49914;PMS5003;35806;47.958;13.158;2023-03-01T05:34:00;66;59;
49914;PMS5003;35806;47.958;13.158;2023-03-01T05:36:27;78;67;
49914;PMS5003;35806;47.958;13.158;2023-03-01T05:38:55;80;67;
49914;PMS5003;35806;47.958;13.158;2023-03-01T05:41:22;68;60;
49914;PMS5003;35806;47.958;13.158;2023-03-01T05:43:49;81;66;
49914;PMS5003;35806;47.958;13.158;2023-03-01T05:46:17;70;63;
49914;PMS5003;35806;47.958;13.158;2023-03-01T05:48:45;76;66;
49914;PMS5003;35806;47.958;13.158;2023-03-01T05:51:12;87;74;
49914;PMS5003;35806;47.958;13.158;2023-03-01T05:53:40;75;68;
49914;PMS5003;35806;47.958;13.158;2023-03-01T05:56:07;89;68;
49914;PMS5003;35806;47.958;13.158;2023-03-01T05:58:34;80;74;
49914;PMS5003;35806;47.958;13.158;2023-03-01T06:01:02;79;67;
49914;PMS5003;35806;47.958;13.158;2023-03-01T06:03:30;84;77;
49914;PMS5003;35806;47.958;13.158;2023-03-01T06:05:57;78;68;
49914;PMS5003;35806;47.958;13.158;2023-03-01T06:08:25;71;60;
49914;PMS5003;35806;47.958;13.158;2023-03-01T06:10:53;80;68;
49914;PMS5003;35806;47.958;13.158;2023-03-01T06:13:19;79;70;
49914;PMS5003;35806;47.958;13.158;2023-03-01T06:15:47;79;68;
49914;PMS5003;35806;47.958;13.158;2023-03-01T06:18:14;80;68;
49914;PMS5003;35806;47.958;13.158;2023-03-01T06:20:41;71;66;
49914;PMS5003;35806;47.958;13.158;2023-03-01T06:23:08;85;73;
49914;PMS5003;35806;47.958;13.158;2023-03-01T06:25:35;86;68;
49914;PMS5003;35806;47.958;13.158;2023-03-01T06:28:03;86;69;
49914;PMS5003;35806;47.958;13.158;2023-03-01T06:30:30;85;71;
49914;PMS5003;35806;47.958;13.158;2023-03-01T06:32:57;88;71;
49914;PMS5003;35806;47.958;13.158;2023-03-01T06:35:25;99;71;
49914;PMS5003;35806;47.958;13.158;2023-03-01T06:37:52;90;76;
49914;PMS5003;35806;47.958;13.158;2023-03-01T06:40:19;82;72;
49914;PMS5003;35806;47.958;13.158;2023-03-01T06:42:48;82;69;
49914;PMS5003;35806;47.958;13.158;2023-03-01T06:45:16;89;75;
49914;PMS5003;35806;47.958;13.158;2023-03-01T06:45:37;89;75;
49914;PMS5003;35806;47.958;13.158;2023-03-01T06:48:05;79;69;
49914;PMS5003;35806;47.958;13.158;2023-03-01T06:50:33;73;64;
49914;PMS5003;35806;47.958;13.158;2023-03-01T06:53:01;87;71;
49914;PMS5003;35806;47.958;13.158;2023-03-01T06:53:22;88;72;
49914;PMS5003;35806;47.958;13.158;2023-03-01T06:55:53;80;69;
49914;PMS5003;35806;47.958;13.158;2023-03-01T06:58:21;86;73;
49914;PMS5003;35806;47.958;13.158;2023-03-01T07:00:48;91;79;
49914;PMS5003;35806;47.958;13.158;2023-03-01T07:03:16;84;70;
49914;PMS5003;35806;47.958;13.158;2023-03-01T07:05:43;95;75;
49914;PMS5003;35806;47.958;13.158;2023-03-01T07:08:11;86;76;
49914;PMS5003;35806;47.958;13.158;2023-03-01T07:10:38;92;78;
49914;PMS5003;35806;47.958;13.158;2023-03-01T07:13:05;90;78;
49914;PMS5003;35806;47.958;13.158;2023-03-01T07:15:33;93;76;
49914;PMS5003;35806;47.958;13.158;2023-03-01T07:18:00;82;70;
49914;PMS5003;35806;47.958;13.158;2023-03-01T07:20:28;86;69;
49914;PMS5003;35806;47.958;13.158;2023-03-01T07:22:55;91;78;
49914;PMS5003;35806;47.958;13.158;2023-03-01T07:25:22;85;78;
49914;PMS5003;35806;47.958;13.158;2023-03-01T07:27:50;89;78;
49914;PMS5003;35806;47.958;13.158;2023-03-01T07:30:18;100;83;
49914;PMS5003;35806;47.958;13.158;2023-03-01T07:32:45;90;75;
49914;PMS5003;35806;47.958;13.158;2023-03-01T07:35:12;93;76;
49914;PMS5003;35806;47.958;13.158;2023-03-01T07:37:40;91;83;
49914;PMS5003;35806;47.958;13.158;2023-03-01T07:40:07;88;78;
49914;PMS5003;35806;47.958;13.158;2023-03-01T07:42:36;79;69;
49914;PMS5003;35806;47.958;13.158;2023-03-01T07:45:05;93;80;
49914;PMS5003;35806;47.958;13.158;2023-03-01T07:47:33;88;74;
49914;PMS5003;35806;47.958;13.158;2023-03-01T07:50:00;75;65;
49914;PMS5003;35806;47.958;13.158;2023-03-01T07:52:27;84;71;
49914;PMS5003;35806;47.958;13.158;2023-03-01T07:54:55;82;67;
49914;PMS5003;35806;47.958;13.158;2023-03-01T07:57:23;79;73;
49914;PMS5003;35806;47.958;13.158;2023-03-01T07:59:50;96;79;
49914;PMS5003;35806;47.958;13.158;2023-03-01T08:02:37;77;64;
49914;PMS5003;35806;47.958;13.158;2023-03-01T08:05:05;74;66;
49914;PMS5003;35806;47.958;13.158;2023-03-01T08:07:32;78;71;
49914;PMS5003;35806;47.958;13.158;2023-03-01T08:10:00;79;71;
49914;PMS5003;35806;47.958;13.158;2023-03-01T08:12:27;71;65;
49914;PMS5003;35806;47.958;13.158;2023-03-01T08:14:55;84;75;
49914;PMS5003;35806;47.958;13.158;2023-03-01T08:17:22;85;70;
49914;PMS5003;35806;47.958;13.158;2023-03-01T08:19:50;87;72;
49914;PMS5003;35806;47.958;13.158;2023-03-01T08:22:17;88;81;
49914;PMS5003;35806;47.958;13.158;2023-03-01T08:24:44;91;77;
49914;PMS5003;35806;47.958;13.158;2023-03-01T08:27:11;81;68;
49914;PMS5003;35806;47.958;13.158;2023-03-01T08:29:38;87;73;
49914;PMS5003;35806;47.958;13.158;2023-03-01T08:32:05;82;73;
49914;PMS5003;35806;47.958;13.158;2023-03-01T08:34:32;89;76;
49914;PMS5003;35806;47.958;13.158;2023-03-01T08:34:53;89;76;
49914;PMS5003;35806;47.958;13.158;2023-03-01T08:37:20;87;75;
49914;PMS5003;35806;47.958;13.158;2023-03-01T08:39:47;86;66;
49914;PMS5003;35806;47.958;13.158;2023-03-01T08:42:15;77;68;
49914;PMS5003;35806;47.958;13.158;2023-03-01T08:44:41;79;66;
49914;PMS5003;35806;47.958;13.158;2023-03-01T08:47:09;79;63;
49914;PMS5003;35806;47.958;13.158;2023-03-01T08:49:36;61;54;
49914;PMS5003;35806;47.958;13.158;2023-03-01T08:52:04;72;69;
49914;PMS5003;35806;47.958;13.158;2023-03-01T08:54:31;67;56;
49914;PMS5003;35806;47.958;13.158;2023-03-01T08:57:00;69;58;
49914;PMS5003;35806;47.958;13.158;2023-03-01T08:59:28;66;55;
49914;PMS5003;35806;47.958;13.158;2023-03-01T09:01:56;66;56;
49914;PMS5003;35806;47.958;13.158;2023-03-01T09:04:23;69;60;
49914;PMS5003;35806;47.958;13.158;2023-03-01T09:06:50;56;47;
49914;PMS5003;35806;47.958;13.158;2023-03-01T09:09:17;64;57;
49914;PMS5003;35806;47.958;13.158;2023-03-01T09:11:45;66;56;
49914;PMS5003;35806;47.958;13.158;2023-03-01T09:14:28;66;57;
49914;PMS5003;35806;47.958;13.158;2023-03-01T09:16:55;62;59;
49914;PMS5003;35806;47.958;13.158;2023-03-01T09:19:23;63;57;
49914;PMS5003;35806;47.958;13.158;2023-03-01T09:21:50;65;59;
49914;PMS5003;35806;47.958;13.158;2023-03-01T09:24:17;55;52;
49914;PMS5003;35806;47.958;13.158;2023-03-01T09:24:38;55;52;
49914;PMS5003;35806;47.958;13.158;2023-03-01T09:27:05;57;52;
49914;PMS5003;35806;47.958;13.158;2023-03-01T09:29:32;63;55;
49914;PMS5003;35806;47.958;13.158;2023-03-01T09:32:00;76;60;
49914;PMS5003;35806;47.958;13.158;2023-03-01T09:34:27;72;63;
49914;PMS5003;35806;47.958;13.158;2023-03-01T09:36:59;76;70;
49914;PMS5003;35806;47.958;13.158;2023-03-01T09:39:27;93;79;
49914;PMS5003;35806;47.958;13.158;2023-03-01T09:41:57;79;72;
49914;PMS5003;35806;47.958;13.158;2023-03-01T09:44:29;87;80;
49914;PMS5003;35806;47.958;13.158;2023-03-01T09:47:00;86;72;
49914;PMS5003;35806;47.958;13.158;2023-03-01T09:49:29;87;76;
49914;PMS5003;35806;47.958;13.158;2023-03-01T09:52:01;83;76;
49914;PMS5003;35806;47.958;13.158;2023-03-01T09:54:38;80;72;
49914;PMS5003;35806;47.958;13.158;2023-03-01T09:57:06;88;72;
49914;PMS5003;35806;47.958;13.158;2023-03-01T09:59:47;84;76;
49914;PMS5003;35806;47.958;13.158;2023-03-01T10:02:26;86;71;
49914;PMS5003;35806;47.958;13.158;2023-03-01T10:04:59;87;79;
49914;PMS5003;35806;47.958;13.158;2023-03-01T10:07:42;83;74;
49914;PMS5003;35806;47.958;13.158;2023-03-01T10:10:17;80;70;
49914;PMS5003;35806;47.958;13.158;2023-03-01T10:12:53;82;74;
49914;PMS5003;35806;47.958;13.158;2023-03-01T10:15:25;87;75;
49914;PMS5003;35806;47.958;13.158;2023-03-01T10:18:01;91;78;
49914;PMS5003;35806;47.958;13.158;2023-03-01T10:20:33;82;76;
49914;PMS5003;35806;47.958;13.158;2023-03-01T10:23:10;82;74;
49914;PMS5003;35806;47.958;13.158;2023-03-01T10:25:42;88;72;
49914;PMS5003;35806;47.958;13.158;2023-03-01T10:28:16;82;69;
49914;PMS5003;35806;47.958;13.158;2023-03-01T10:30:47;76;72;
49914;PMS5003;35806;47.958;13.158;2023-03-01T10:33:16;85;73;
49914;PMS5003;35806;47.958;13.158;2023-03-01T10:35:45;87;74;
49914;PMS5003;35806;47.958;13.158;2023-03-01T10:38:13;77;69;
49914;PMS5003;35806;47.958;13.158;2023-03-01T10:40:50;79;70;
49914;PMS5003;35806;47.958;13.158;2023-03-01T10:43:20;86;76;
49914;PMS5003;35806;47.958;13.158;2023-03-01T10:45:48;73;66;
49914;PMS5003;35806;47.958;13.158;2023-03-01T10:48:16;78;64;
49914;PMS5003;35806;47.958;13.158;2023-03-01T10:50:45;84;72;
49914;PMS5003;35806;47.958;13.158;2023-03-01T10:53:22;81;72;
49914;PMS5003;35806;47.958;13.158;2023-03-01T10:55:57;79;76;
49914;PMS5003;35806;47.958;13.158;2023-03-01T10:58:27;76;73;
49914;PMS5003;35806;47.958;13.158;2023-03-01T11:00:56;81;70;
49914;PMS5003;35806;47.958;13.158;2023-03-01T11:03:26;73;67;
49914;PMS5003;35806;47.958;13.158;2023-03-01T11:05:56;76;67;
49914;PMS5003;35806;47.958;13.158;2023-03-01T11:08:33;76;68;
49914;PMS5003;35806;47.958;13.158;2023-03-01T11:11:05;77;64;
49914;PMS5003;35806;47.958;13.158;2023-03-01T11:13:47;70;67;
49914;PMS5003;35806;47.958;13.158;2023-03-01T11:16:24;74;72;
49914;PMS5003;35806;47.958;13.158;2023-03-01T11:19:04;75;67;
49914;PMS5003;35806;47.958;13.158;2023-03-01T11:21:41;72;63;
49914;PMS5003;35806;47.958;13.158;2023-03-01T11:24:17;69;65;
49914;PMS5003;35806;47.958;13.158;2023-03-01T11:26:47;71;67;
49914;PMS5003;35806;47.958;13.158;2023-03-01T11:29:24;67;57;
49914;PMS5003;35806;47.958;13.158;2023-03-01T11:31:58;66;59;
49914;PMS5003;35806;47.958;13.158;2023-03-01T11:34:34;65;58;
49914;PMS5003;35806;47.958;13.158;2023-03-01T11:37:10;75;64;
49914;PMS5003;35806;47.958;13.158;2023-03-01T11:39:44;67;61;
49914;PMS5003;35806;47.958;13.158;2023-03-01T11:42:17;66;59;
49914;PMS5003;35806;47.958;13.158;2023-03-01T11:44:50;70;63;
49914;PMS5003;35806;47.958;13.158;2023-03-01T11:47:25;67;58;
49914;PMS5003;35806;47.958;13.158;2023-03-01T11:50:09;64;61;
49914;PMS5003;35806;47.958;13.158;2023-03-01T11:52:50;63;63;
49914;PMS5003;35806;47.958;13.158;2023-03-01T11:55:30;68;61;
49914;PMS5003;35806;47.958;13.158;2023-03-01T11:58:17;66;58;
49914;PMS5003;35806;47.958;13.158;2023-03-01T12:01:02;57;55;
49914;PMS5003;35806;47.958;13.158;2023-03-01T12:03:46;58;51;
49914;PMS5003;35806;47.958;13.158;2023-03-01T12:06:39;64;54;
49914;PMS5003;35806;47.958;13.158;2023-03-01T12:09:20;61;56;
49914;PMS5003;35806;47.958;13.158;2023-03-01T12:12:07;63;56;
49914;PMS5003;35806;47.958;13.158;2023-03-01T12:14:54;66;62;
49914;PMS5003;35806;47.958;13.158;2023-03-01T12:17:38;64;61;
49914;PMS5003;35806;47.958;13.158;2023-03-01T12:20:20;65;60;
49914;PMS5003;35806;47.958;13.158;2023-03-01T12:22:59;59;53;
49914;PMS5003;35806;47.958;13.158;2023-03-01T12:25:44;60;55;
49914;PMS5003;35806;47.958;13.158;2023-03-01T12:28:18;64;59;
49914;PMS5003;35806;47.958;13.158;2023-03-01T12:31:02;69;60;
49914;PMS5003;35806;47.958;13.158;2023-03-01T12:34:01;62;57;
49914;PMS5003;35806;47.958;13.158;2023-03-01T12:36:43;60;56;
49914;PMS5003;35806;47.958;13.158;2023-03-01T12:39:22;64;58;
49914;PMS5003;35806;47.958;13.158;2023-03-01T12:42:05;56;51;
49914;PMS5003;35806;47.958;13.158;2023-03-01T12:44:47;70;62;
49914;PMS5003;35806;47.958;13.158;2023-03-01T12:47:29;64;56;
49914;PMS5003;35806;47.958;13.158;2023-03-01T12:50:12;60;52;
49914;PMS5003;35806;47.958;13.158;2023-03-01T12:52:46;60;55;
49914;PMS5003;35806;47.958;13.158;2023-03-01T12:55:19;55;52;
49914;PMS5003;35806;47.958;13.158;2023-03-01T12:57:57;64;57;
49914;PMS5003;35806;47.958;13.158;2023-03-01T13:00:32;51;50;
49914;PMS5003;35806;47.958;13.158;2023-03-01T13:03:09;67;56;
49914;PMS5003;35806;47.958;13.158;2023-03-01T13:05:48;56;53;
49914;PMS5003;35806;47.958;13.158;2023-03-01T13:08:27;60;51;
49914;PMS5003;35806;47.958;13.158;2023-03-01T13:11:06;58;47;
49914;PMS5003;35806;47.958;13.158;2023-03-01T13:13:43;58;54;
49914;PMS5003;35806;47.958;13.158;2023-03-01T13:16:46;58;53;
49914;PMS5003;35806;47.958;13.158;2023-03-01T13:19:15;63;52;
49914;PMS5003;35806;47.958;13.158;2023-03-01T13:21:44;59;50;
49914;PMS5003;35806;47.958;13.158;2023-03-01T13:24:29;53;49;
49914;PMS5003;35806;47.958;13.158;2023-03-01T13:27:20;52;50;
49914;PMS5003;35806;47.958;13.158;2023-03-01T13:29:50;49;45;
49914;PMS5003;35806;47.958;13.158;2023-03-01T13:32:19;60;51;
49914;PMS5003;35806;47.958;13.158;2023-03-01T13:34:49;55;48;
49914;PMS5003;35806;47.958;13.158;2023-03-01T13:37:20;53;47;
49914;PMS5003;35806;47.958;13.158;2023-03-01T13:39:51;60;52;
49914;PMS5003;35806;47.958;13.158;2023-03-01T13:42:36;51;51;
49914;PMS5003;35806;47.958;13.158;2023-03-01T13:45:25;57;51;
49914;PMS5003;35806;47.958;13.158;2023-03-01T13:48:03;57;51;
49914;PMS5003;35806;47.958;13.158;2023-03-01T13:50:38;61;54;
49914;PMS5003;35806;47.958;13.158;2023-03-01T13:53:15;56;52;
49914;PMS5003;35806;47.958;13.158;2023-03-01T13:55:46;58;52;
49914;PMS5003;35806;47.958;13.158;2023-03-01T13:58:16;54;47;
49914;PMS5003;35806;47.958;13.158;2023-03-01T14:00:54;51;46;
49914;PMS5003;35806;47.958;13.158;2023-03-01T14:03:22;59;56;
49914;PMS5003;35806;47.958;13.158;2023-03-01T14:06:05;50;47;
49914;PMS5003;35806;47.958;13.158;2023-03-01T14:08:35;51;50;
49914;PMS5003;35806;47.958;13.158;2023-03-01T14:12:19;53;50;
49914;PMS5003;35806;47.958;13.158;2023-03-01T14:15:06;49;47;
49914;PMS5003;35806;47.958;13.158;2023-03-01T14:17:47;57;50;
49914;PMS5003;35806;47.958;13.158;2023-03-01T14:20:23;53;50;
49914;PMS5003;35806;47.958;13.158;2023-03-01T14:22:53;56;51;
49914;PMS5003;35806;47.958;13.158;2023-03-01T14:25:24;58;50;
49914;PMS5003;35806;47.958;13.158;2023-03-01T14:27:55;63;55;
49914;PMS5003;35806;47.958;13.158;2023-03-01T14:30:25;52;48;
49914;PMS5003;35806;47.958;13.158;2023-03-01T14:32:57;58;50;
49914;PMS5003;35806;47.958;13.158;2023-03-01T14:35:26;57;54;
49914;PMS5003;35806;47.958;13.158;2023-03-01T14:37:55;50;47;
49914;PMS5003;35806;47.958;13.158;2023-03-01T14:40:23;62;56;
49914;PMS5003;35806;47.958;13.158;2023-03-01T14:42:53;50;47;
49914;PMS5003;35806;47.958;13.158;2023-03-01T14:45:24;61;57;
49914;PMS5003;35806;47.958;13.158;2023-03-01T14:47:54;60;53;
49914;PMS5003;35806;47.958;13.158;2023-03-01T14:50:23;60;56;
49914;PMS5003;35806;47.958;13.158;2023-03-01T14:52:53;62;53;
49914;PMS5003;35806;47.958;13.158;2023-03-01T14:55:25;56;52;
49914;PMS5003;35806;47.958;13.158;2023-03-01T14:57:56;65;58;
49914;PMS5003;35806;47.958;13.158;2023-03-01T15:00:24;54;52;
49914;PMS5003;35806;47.958;13.158;2023-03-01T15:02:54;58;52;
49914;PMS5003;35806;47.958;13.158;2023-03-01T15:05:25;55;49;
49914;PMS5003;35806;47.958;13.158;2023-03-01T15:07:55;52;49;
49914;PMS5003;35806;47.958;13.158;2023-03-01T15:10:26;54;51;
49914;PMS5003;35806;47.958;13.158;2023-03-01T15:12:54;56;46;
49914;PMS5003;35806;47.958;13.158;2023-03-01T15:15:30;56;50;
49914;PMS5003;35806;47.958;13.158;2023-03-01T15:18:02;55;49;
49914;PMS5003;35806;47.958;13.158;2023-03-01T15:20:32;63;52;
49914;PMS5003;35806;47.958;13.158;2023-03-01T15:23:00;47;41;
49914;PMS5003;35806;47.958;13.158;2023-03-01T15:25:29;50;47;
49914;PMS5003;35806;47.958;13.158;2023-03-01T15:27:59;51;47;
49914;PMS5003;35806;47.958;13.158;2023-03-01T15:30:29;53;51;
49914;PMS5003;35806;47.958;13.158;2023-03-01T15:33:32;50;48;
49914;PMS5003;35806;47.958;13.158;2023-03-01T15:36:02;54;49;
49914;PMS5003;35806;47.958;13.158;2023-03-01T15:38:56;47;43;
49914;PMS5003;35806;47.958;13.158;2023-03-01T15:41:24;50;45;
49914;PMS5003;35806;47.958;13.158;2023-03-01T15:43:54;62;54;
49914;PMS5003;35806;47.958;13.158;2023-03-01T15:46:44;59;50;
49914;PMS5003;35806;47.958;13.158;2023-03-01T15:49:25;55;49;
49914;PMS5003;35806;47.958;13.158;2023-03-01T15:52:00;59;49;
49914;PMS5003;35806;47.958;13.158;2023-03-01T15:54:27;52;48;
49914;PMS5003;35806;47.958;13.158;2023-03-01T15:56:55;59;52;
49914;PMS5003;35806;47.958;13.158;2023-03-01T15:59:23;52;49;
49914;PMS5003;35806;47.958;13.158;2023-03-01T16:01:50;51;44;
49914;PMS5003;35806;47.958;13.158;2023-03-01T16:04:18;54;50;
49914;PMS5003;35806;47.958;13.158;2023-03-01T16:06:51;54;49;
49914;PMS5003;35806;47.958;13.158;2023-03-01T16:09:22;63;57;
49914;PMS5003;35806;47.958;13.158;2023-03-01T16:11:49;62;54;
49914;PMS5003;35806;47.958;13.158;2023-03-01T16:14:17;64;54;
49914;PMS5003;35806;47.958;13.158;2023-03-01T16:16:45;52;51;
49914;PMS5003;35806;47.958;13.158;2023-03-01T16:19:14;65;57;
49914;PMS5003;35806;47.958;13.158;2023-03-01T16:21:42;51;43;
49914;PMS5003;35806;47.958;13.158;2023-03-01T16:24:09;51;46;
49914;PMS5003;35806;47.958;13.158;2023-03-01T16:26:37;54;46;
49914;PMS5003;35806;47.958;13.158;2023-03-01T16:29:04;59;51;
49914;PMS5003;35806;47.958;13.158;2023-03-01T16:31:32;48;44;